Chenoa, Kentucky
Current Conditions -  °F | °C
As of 11:35 AM on Wednesday 22 Oct 2014 (Local Time) from K1A6 Reporting Station
Overcast Overcast  
Wind Chill: 50°   Ceiling: 3300
Heat Index: 50°   Visibility: 10mi
Dew Point: 39°   Wind: 3mph
Humidity: 66%   Direction: 30°NNE
Pressure: 30.25"   Gusts: NA
Location:  36.7417°N, 83.6911°W
Report Text: K1A6 221535Z AUTO 03003KT 10SM OVC033 10/04 A3025 RMK AO2 T00990039
Loading
Personal Weather Stations






























Interactive Weather Map
Tropical Storm Tracking
New forecast layout! Learn more

10-Day Weather Forecast

Advertisements
Track Severe Weather on mobile